Schedule Details


Flight Number: CTN624
Departure: Klisa (LDOS) at 23:15
Arrival: Cilipi (LDDU) at 00:15
Route: ADULA P10 NERRA

Weather Information
LDOS 221600Z 22003KT CAVOK 22/05 Q1016
LDDU 221600Z 13008KT 100V160 CAVOK 20/12 Q1019 NOSIG
Schedule Frequency

Route Map